sensor_id;sensor_type;location;lat;lon;timestamp;P1;durP1;ratioP1;P2;durP2;ratioP2
9836;SDS011;4957;51.412;6.724;2022-11-15T00:01:44;13.70;;;7.93;;
9836;SDS011;4957;51.412;6.724;2022-11-15T00:04:10;11.33;;;7.87;;
9836;SDS011;4957;51.412;6.724;2022-11-15T00:06:35;11.03;;;8.13;;
9836;SDS011;4957;51.412;6.724;2022-11-15T00:09:01;13.30;;;8.53;;
9836;SDS011;4957;51.412;6.724;2022-11-15T00:11:28;14.73;;;8.20;;
9836;SDS011;4957;51.412;6.724;2022-11-15T00:13:57;12.40;;;8.30;;
9836;SDS011;4957;51.412;6.724;2022-11-15T00:16:23;13.00;;;8.20;;
9836;SDS011;4957;51.412;6.724;2022-11-15T00:18:49;11.53;;;8.20;;
9836;SDS011;4957;51.412;6.724;2022-11-15T00:21:16;12.37;;;8.27;;
9836;SDS011;4957;51.412;6.724;2022-11-15T00:23:42;11.37;;;7.77;;
9836;SDS011;4957;51.412;6.724;2022-11-15T00:26:11;12.67;;;7.97;;
9836;SDS011;4957;51.412;6.724;2022-11-15T00:28:39;10.83;;;7.20;;
9836;SDS011;4957;51.412;6.724;2022-11-15T00:31:06;9.37;;;7.17;;
9836;SDS011;4957;51.412;6.724;2022-11-15T00:33:35;10.53;;;7.30;;
9836;SDS011;4957;51.412;6.724;2022-11-15T00:36:04;13.63;;;7.57;;
9836;SDS011;4957;51.412;6.724;2022-11-15T00:38:32;9.43;;;7.43;;
9836;SDS011;4957;51.412;6.724;2022-11-15T00:40:58;14.20;;;7.93;;
9836;SDS011;4957;51.412;6.724;2022-11-15T00:43:25;11.27;;;7.23;;
9836;SDS011;4957;51.412;6.724;2022-11-15T00:45:50;10.23;;;7.23;;
9836;SDS011;4957;51.412;6.724;2022-11-15T00:48:16;13.13;;;7.63;;
9836;SDS011;4957;51.412;6.724;2022-11-15T00:50:42;11.93;;;7.30;;
9836;SDS011;4957;51.412;6.724;2022-11-15T00:53:07;10.67;;;7.23;;
9836;SDS011;4957;51.412;6.724;2022-11-15T00:55:33;10.30;;;7.03;;
9836;SDS011;4957;51.412;6.724;2022-11-15T00:57:59;12.70;;;7.77;;
9836;SDS011;4957;51.412;6.724;2022-11-15T01:00:25;10.93;;;7.03;;
9836;SDS011;4957;51.412;6.724;2022-11-15T01:02:50;9.23;;;6.67;;
9836;SDS011;4957;51.412;6.724;2022-11-15T01:05:16;11.47;;;7.33;;
9836;SDS011;4957;51.412;6.724;2022-11-15T01:07:42;10.87;;;6.83;;
9836;SDS011;4957;51.412;6.724;2022-11-15T01:10:08;9.70;;;7.10;;
9836;SDS011;4957;51.412;6.724;2022-11-15T01:12:33;9.93;;;7.43;;
9836;SDS011;4957;51.412;6.724;2022-11-15T01:14:59;13.67;;;7.33;;
9836;SDS011;4957;51.412;6.724;2022-11-15T01:17:25;12.03;;;7.23;;
9836;SDS011;4957;51.412;6.724;2022-11-15T01:19:50;11.27;;;7.30;;
9836;SDS011;4957;51.412;6.724;2022-11-15T01:22:16;12.70;;;7.70;;
9836;SDS011;4957;51.412;6.724;2022-11-15T01:24:42;9.87;;;7.33;;
9836;SDS011;4957;51.412;6.724;2022-11-15T01:27:08;14.20;;;7.90;;
9836;SDS011;4957;51.412;6.724;2022-11-15T01:29:34;12.70;;;8.03;;
9836;SDS011;4957;51.412;6.724;2022-11-15T01:31:59;11.60;;;7.50;;
9836;SDS011;4957;51.412;6.724;2022-11-15T01:34:25;14.90;;;8.10;;
9836;SDS011;4957;51.412;6.724;2022-11-15T01:36:51;12.40;;;7.83;;
9836;SDS011;4957;51.412;6.724;2022-11-15T01:39:16;11.13;;;7.53;;
9836;SDS011;4957;51.412;6.724;2022-11-15T01:41:42;13.23;;;7.87;;
9836;SDS011;4957;51.412;6.724;2022-11-15T01:47:06;10.00;;;7.03;;
9836;SDS011;4957;51.412;6.724;2022-11-15T01:49:57;12.47;;;7.27;;
9836;SDS011;4957;51.412;6.724;2022-11-15T01:52:29;12.03;;;7.27;;
9836;SDS011;4957;51.412;6.724;2022-11-15T01:57:34;12.93;;;7.67;;
9836;SDS011;4957;51.412;6.724;2022-11-15T02:00:01;9.57;;;7.00;;
9836;SDS011;4957;51.412;6.724;2022-11-15T02:02:29;10.47;;;7.17;;
9836;SDS011;4957;51.412;6.724;2022-11-15T02:04:55;10.67;;;7.30;;
9836;SDS011;4957;51.412;6.724;2022-11-15T02:07:20;16.00;;;7.40;;
9836;SDS011;4957;51.412;6.724;2022-11-15T02:09:47;9.83;;;7.33;;
9836;SDS011;4957;51.412;6.724;2022-11-15T02:12:15;13.27;;;7.77;;
9836;SDS011;4957;51.412;6.724;2022-11-15T02:14:45;12.87;;;7.77;;
9836;SDS011;4957;51.412;6.724;2022-11-15T02:20:30;19.37;;;11.17;;
9836;SDS011;4957;51.412;6.724;2022-11-15T02:23:41;10.47;;;7.17;;
9836;SDS011;4957;51.412;6.724;2022-11-15T02:34:39;10.40;;;7.07;;
9836;SDS011;4957;51.412;6.724;2022-11-15T02:37:09;9.37;;;6.93;;
9836;SDS011;4957;51.412;6.724;2022-11-15T02:42:18;14.60;;;7.80;;
9836;SDS011;4957;51.412;6.724;2022-11-15T02:45:20;12.50;;;7.67;;
9836;SDS011;4957;51.412;6.724;2022-11-15T02:47:49;11.57;;;6.97;;
9836;SDS011;4957;51.412;6.724;2022-11-15T02:50:21;10.70;;;7.03;;
9836;SDS011;4957;51.412;6.724;2022-11-15T02:52:51;12.90;;;6.70;;
9836;SDS011;4957;51.412;6.724;2022-11-15T02:55:33;12.07;;;7.93;;
9836;SDS011;4957;51.412;6.724;2022-11-15T02:58:38;11.33;;;7.13;;
9836;SDS011;4957;51.412;6.724;2022-11-15T03:03:48;10.30;;;6.87;;
9836;SDS011;4957;51.412;6.724;2022-11-15T03:15:00;12.93;;;6.40;;
9836;SDS011;4957;51.412;6.724;2022-11-15T03:17:35;9.03;;;6.60;;
9836;SDS011;4957;51.412;6.724;2022-11-15T03:20:06;11.93;;;7.77;;
9836;SDS011;4957;51.412;6.724;2022-11-15T03:22:36;9.27;;;7.03;;
9836;SDS011;4957;51.412;6.724;2022-11-15T03:25:06;11.10;;;7.30;;
9836;SDS011;4957;51.412;6.724;2022-11-15T03:27:36;10.03;;;6.73;;
9836;SDS011;4957;51.412;6.724;2022-11-15T03:30:07;8.47;;;6.70;;
9836;SDS011;4957;51.412;6.724;2022-11-15T03:32:44;9.17;;;6.97;;
9836;SDS011;4957;51.412;6.724;2022-11-15T03:35:17;12.50;;;7.00;;
9836;SDS011;4957;51.412;6.724;2022-11-15T03:37:59;10.20;;;6.97;;
9836;SDS011;4957;51.412;6.724;2022-11-15T03:40:36;10.77;;;7.23;;
9836;SDS011;4957;51.412;6.724;2022-11-15T03:46:02;9.00;;;6.33;;
9836;SDS011;4957;51.412;6.724;2022-11-15T03:48:43;11.10;;;7.00;;
9836;SDS011;4957;51.412;6.724;2022-11-15T03:51:13;8.33;;;6.70;;
9836;SDS011;4957;51.412;6.724;2022-11-15T03:53:40;11.50;;;6.77;;
9836;SDS011;4957;51.412;6.724;2022-11-15T03:56:06;11.70;;;7.70;;
9836;SDS011;4957;51.412;6.724;2022-11-15T03:58:32;10.67;;;6.77;;
9836;SDS011;4957;51.412;6.724;2022-11-15T04:00:57;10.53;;;6.80;;
9836;SDS011;4957;51.412;6.724;2022-11-15T04:03:24;13.07;;;6.70;;
9836;SDS011;4957;51.412;6.724;2022-11-15T04:05:50;11.00;;;7.13;;
9836;SDS011;4957;51.412;6.724;2022-11-15T04:08:16;10.93;;;6.93;;
9836;SDS011;4957;51.412;6.724;2022-11-15T04:10:42;9.57;;;6.80;;
9836;SDS011;4957;51.412;6.724;2022-11-15T04:13:07;12.90;;;7.13;;
9836;SDS011;4957;51.412;6.724;2022-11-15T04:15:33;9.93;;;6.07;;
9836;SDS011;4957;51.412;6.724;2022-11-15T04:17:59;8.90;;;6.30;;
9836;SDS011;4957;51.412;6.724;2022-11-15T04:20:26;11.57;;;6.80;;
9836;SDS011;4957;51.412;6.724;2022-11-15T04:23:16;6.70;;;5.57;;
9836;SDS011;4957;51.412;6.724;2022-11-15T04:26:06;12.00;;;6.33;;
9836;SDS011;4957;51.412;6.724;2022-11-15T04:28:35;8.90;;;6.17;;
9836;SDS011;4957;51.412;6.724;2022-11-15T04:31:21;10.60;;;6.33;;
9836;SDS011;4957;51.412;6.724;2022-11-15T04:33:46;10.83;;;6.40;;
9836;SDS011;4957;51.412;6.724;2022-11-15T04:36:12;8.03;;;6.07;;
9836;SDS011;4957;51.412;6.724;2022-11-15T04:38:56;7.93;;;5.73;;
9836;SDS011;4957;51.412;6.724;2022-11-15T04:41:22;9.93;;;5.63;;
9836;SDS011;4957;51.412;6.724;2022-11-15T04:43:48;8.23;;;5.30;;
9836;SDS011;4957;51.412;6.724;2022-11-15T04:46:13;7.67;;;5.50;;
9836;SDS011;4957;51.412;6.724;2022-11-15T04:48:39;7.97;;;5.63;;
9836;SDS011;4957;51.412;6.724;2022-11-15T04:51:05;7.27;;;5.43;;
9836;SDS011;4957;51.412;6.724;2022-11-15T04:53:30;8.07;;;5.97;;
9836;SDS011;4957;51.412;6.724;2022-11-15T04:55:56;9.40;;;5.47;;
9836;SDS011;4957;51.412;6.724;2022-11-15T04:58:21;10.20;;;5.57;;
9836;SDS011;4957;51.412;6.724;2022-11-15T05:00:47;8.03;;;5.50;;
9836;SDS011;4957;51.412;6.724;2022-11-15T05:03:13;8.43;;;5.40;;
9836;SDS011;4957;51.412;6.724;2022-11-15T05:05:58;7.00;;;5.43;;
9836;SDS011;4957;51.412;6.724;2022-11-15T05:08:24;8.83;;;6.00;;
9836;SDS011;4957;51.412;6.724;2022-11-15T05:10:50;9.53;;;5.53;;
9836;SDS011;4957;51.412;6.724;2022-11-15T05:13:15;9.37;;;5.40;;
9836;SDS011;4957;51.412;6.724;2022-11-15T05:15:41;6.37;;;5.77;;
9836;SDS011;4957;51.412;6.724;2022-11-15T05:18:07;8.90;;;5.07;;
9836;SDS011;4957;51.412;6.724;2022-11-15T05:20:32;7.07;;;5.57;;
9836;SDS011;4957;51.412;6.724;2022-11-15T05:22:58;10.77;;;5.63;;
9836;SDS011;4957;51.412;6.724;2022-11-15T05:25:24;8.97;;;4.60;;
9836;SDS011;4957;51.412;6.724;2022-11-15T05:27:50;6.33;;;4.93;;
9836;SDS011;4957;51.412;6.724;2022-11-15T05:30:15;6.47;;;4.87;;
9836;SDS011;4957;51.412;6.724;2022-11-15T05:32:42;7.37;;;5.10;;
9836;SDS011;4957;51.412;6.724;2022-11-15T05:35:08;8.30;;;5.20;;
9836;SDS011;4957;51.412;6.724;2022-11-15T05:37:40;7.97;;;5.10;;
9836;SDS011;4957;51.412;6.724;2022-11-15T05:40:05;6.50;;;5.27;;
9836;SDS011;4957;51.412;6.724;2022-11-15T05:42:32;6.13;;;4.80;;
9836;SDS011;4957;51.412;6.724;2022-11-15T05:44:58;8.33;;;4.90;;
9836;SDS011;4957;51.412;6.724;2022-11-15T05:47:27;6.37;;;5.07;;
9836;SDS011;4957;51.412;6.724;2022-11-15T05:49:55;6.10;;;4.80;;
9836;SDS011;4957;51.412;6.724;2022-11-15T05:52:22;8.03;;;5.33;;
9836;SDS011;4957;51.412;6.724;2022-11-15T05:54:52;6.13;;;5.03;;
9836;SDS011;4957;51.412;6.724;2022-11-15T05:57:18;8.57;;;5.50;;
9836;SDS011;4957;51.412;6.724;2022-11-15T05:59:44;10.90;;;5.60;;
9836;SDS011;4957;51.412;6.724;2022-11-15T06:02:11;7.17;;;5.50;;
9836;SDS011;4957;51.412;6.724;2022-11-15T06:04:37;9.93;;;6.43;;
9836;SDS011;4957;51.412;6.724;2022-11-15T06:07:02;10.83;;;5.70;;
9836;SDS011;4957;51.412;6.724;2022-11-15T06:09:28;10.57;;;5.67;;
9836;SDS011;4957;51.412;6.724;2022-11-15T06:11:54;6.10;;;5.20;;
9836;SDS011;4957;51.412;6.724;2022-11-15T06:14:19;10.27;;;6.03;;
9836;SDS011;4957;51.412;6.724;2022-11-15T06:16:45;7.30;;;6.13;;
9836;SDS011;4957;51.412;6.724;2022-11-15T06:19:11;8.23;;;5.80;;
9836;SDS011;4957;51.412;6.724;2022-11-15T06:21:36;9.30;;;5.77;;
9836;SDS011;4957;51.412;6.724;2022-11-15T06:24:02;10.40;;;6.17;;
9836;SDS011;4957;51.412;6.724;2022-11-15T06:26:28;9.10;;;6.10;;
9836;SDS011;4957;51.412;6.724;2022-11-15T06:28:54;8.70;;;6.07;;
9836;SDS011;4957;51.412;6.724;2022-11-15T06:31:19;7.83;;;6.17;;
9836;SDS011;4957;51.412;6.724;2022-11-15T06:33:46;8.00;;;6.43;;
9836;SDS011;4957;51.412;6.724;2022-11-15T06:36:12;8.63;;;6.30;;
9836;SDS011;4957;51.412;6.724;2022-11-15T06:38:42;7.63;;;6.23;;
9836;SDS011;4957;51.412;6.724;2022-11-15T06:41:11;13.27;;;6.23;;
9836;SDS011;4957;51.412;6.724;2022-11-15T06:43:39;8.63;;;5.93;;
9836;SDS011;4957;51.412;6.724;2022-11-15T06:46:05;6.90;;;5.73;;
9836;SDS011;4957;51.412;6.724;2022-11-15T06:48:32;7.57;;;6.03;;
9836;SDS011;4957;51.412;6.724;2022-11-15T06:50:59;10.87;;;5.80;;
9836;SDS011;4957;51.412;6.724;2022-11-15T06:53:26;10.40;;;6.57;;
9836;SDS011;4957;51.412;6.724;2022-11-15T06:55:52;9.30;;;5.37;;
9836;SDS011;4957;51.412;6.724;2022-11-15T06:58:18;8.13;;;5.80;;
9836;SDS011;4957;51.412;6.724;2022-11-15T07:00:45;9.30;;;5.50;;
9836;SDS011;4957;51.412;6.724;2022-11-15T07:03:11;7.93;;;5.53;;
9836;SDS011;4957;51.412;6.724;2022-11-15T07:05:37;7.57;;;5.43;;
9836;SDS011;4957;51.412;6.724;2022-11-15T07:08:03;6.57;;;5.13;;
9836;SDS011;4957;51.412;6.724;2022-11-15T07:10:29;7.77;;;5.13;;
9836;SDS011;4957;51.412;6.724;2022-11-15T07:12:55;7.43;;;5.20;;
9836;SDS011;4957;51.412;6.724;2022-11-15T07:15:22;6.40;;;5.00;;
9836;SDS011;4957;51.412;6.724;2022-11-15T07:17:49;9.30;;;4.97;;
9836;SDS011;4957;51.412;6.724;2022-11-15T07:20:15;6.43;;;5.37;;
9836;SDS011;4957;51.412;6.724;2022-11-15T07:22:41;7.20;;;4.93;;
9836;SDS011;4957;51.412;6.724;2022-11-15T07:25:07;9.00;;;5.13;;
9836;SDS011;4957;51.412;6.724;2022-11-15T07:27:34;6.03;;;4.53;;
9836;SDS011;4957;51.412;6.724;2022-11-15T07:30:03;6.97;;;5.20;;
9836;SDS011;4957;51.412;6.724;2022-11-15T07:32:29;7.80;;;4.80;;
9836;SDS011;4957;51.412;6.724;2022-11-15T07:34:55;6.03;;;4.50;;
9836;SDS011;4957;51.412;6.724;2022-11-15T07:37:21;4.83;;;4.30;;
9836;SDS011;4957;51.412;6.724;2022-11-15T07:39:46;4.80;;;3.50;;
9836;SDS011;4957;51.412;6.724;2022-11-15T07:42:12;7.30;;;3.50;;
9836;SDS011;4957;51.412;6.724;2022-11-15T07:44:56;3.77;;;3.37;;
9836;SDS011;4957;51.412;6.724;2022-11-15T07:47:22;5.23;;;3.67;;
9836;SDS011;4957;51.412;6.724;2022-11-15T07:49:48;5.87;;;4.17;;
9836;SDS011;4957;51.412;6.724;2022-11-15T07:52:14;4.93;;;3.67;;
9836;SDS011;4957;51.412;6.724;2022-11-15T07:54:39;7.23;;;4.10;;
9836;SDS011;4957;51.412;6.724;2022-11-15T07:57:05;3.03;;;2.50;;
9836;SDS011;4957;51.412;6.724;2022-11-15T07:59:32;4.73;;;1.67;;
9836;SDS011;4957;51.412;6.724;2022-11-15T08:01:57;2.30;;;1.40;;
9836;SDS011;4957;51.412;6.724;2022-11-15T08:04:23;0.63;;;0.63;;
9836;SDS011;4957;51.412;6.724;2022-11-15T08:06:49;2.63;;;1.00;;
9836;SDS011;4957;51.412;6.724;2022-11-15T08:09:14;0.97;;;0.83;;
9836;SDS011;4957;51.412;6.724;2022-11-15T08:11:40;1.70;;;1.10;;
9836;SDS011;4957;51.412;6.724;2022-11-15T08:14:06;0.70;;;0.70;;
9836;SDS011;4957;51.412;6.724;2022-11-15T08:16:32;1.73;;;0.90;;
9836;SDS011;4957;51.412;6.724;2022-11-15T08:18:57;3.60;;;1.07;;
9836;SDS011;4957;51.412;6.724;2022-11-15T08:21:23;2.70;;;0.90;;
9836;SDS011;4957;51.412;6.724;2022-11-15T08:23:49;3.93;;;1.87;;
9836;SDS011;4957;51.412;6.724;2022-11-15T08:26:15;2.70;;;1.77;;
9836;SDS011;4957;51.412;6.724;2022-11-15T08:28:41;3.37;;;1.40;;
9836;SDS011;4957;51.412;6.724;2022-11-15T08:31:11;2.30;;;1.40;;
9836;SDS011;4957;51.412;6.724;2022-11-15T08:33:39;5.90;;;1.30;;
9836;SDS011;4957;51.412;6.724;2022-11-15T08:36:04;2.07;;;1.70;;
9836;SDS011;4957;51.412;6.724;2022-11-15T08:38:30;3.67;;;2.10;;
9836;SDS011;4957;51.412;6.724;2022-11-15T08:41:00;2.67;;;2.10;;
9836;SDS011;4957;51.412;6.724;2022-11-15T08:43:28;5.40;;;2.33;;
9836;SDS011;4957;51.412;6.724;2022-11-15T08:45:57;5.67;;;3.00;;
9836;SDS011;4957;51.412;6.724;2022-11-15T08:48:23;3.67;;;2.90;;
9836;SDS011;4957;51.412;6.724;2022-11-15T08:50:52;3.30;;;3.00;;
9836;SDS011;4957;51.412;6.724;2022-11-15T08:53:20;3.30;;;3.00;;
9836;SDS011;4957;51.412;6.724;2022-11-15T08:55:46;2.67;;;2.33;;
9836;SDS011;4957;51.412;6.724;2022-11-15T08:58:12;4.37;;;2.63;;
9836;SDS011;4957;51.412;6.724;2022-11-15T09:00:38;5.50;;;2.70;;
9836;SDS011;4957;51.412;6.724;2022-11-15T09:03:04;5.77;;;2.97;;
9836;SDS011;4957;51.412;6.724;2022-11-15T09:05:30;7.80;;;2.80;;
9836;SDS011;4957;51.412;6.724;2022-11-15T09:07:56;5.00;;;2.83;;
9836;SDS011;4957;51.412;6.724;2022-11-15T09:10:22;3.30;;;2.40;;
9836;SDS011;4957;51.412;6.724;2022-11-15T09:12:48;4.93;;;2.47;;
9836;SDS011;4957;51.412;6.724;2022-11-15T09:15:14;4.73;;;2.43;;
9836;SDS011;4957;51.412;6.724;2022-11-15T09:17:40;6.40;;;2.50;;
9836;SDS011;4957;51.412;6.724;2022-11-15T09:20:07;4.67;;;2.43;;
9836;SDS011;4957;51.412;6.724;2022-11-15T09:22:33;4.50;;;2.23;;
9836;SDS011;4957;51.412;6.724;2022-11-15T09:24:59;5.60;;;2.83;;
9836;SDS011;4957;51.412;6.724;2022-11-15T09:27:29;3.37;;;2.63;;
9836;SDS011;4957;51.412;6.724;2022-11-15T09:29:55;3.93;;;2.97;;
9836;SDS011;4957;51.412;6.724;2022-11-15T09:32:20;3.77;;;3.10;;
9836;SDS011;4957;51.412;6.724;2022-11-15T09:34:48;4.83;;;3.20;;
9836;SDS011;4957;51.412;6.724;2022-11-15T09:37:14;4.50;;;3.30;;
9836;SDS011;4957;51.412;6.724;2022-11-15T09:39:40;4.13;;;3.40;;
9836;SDS011;4957;51.412;6.724;2022-11-15T09:44:59;5.87;;;2.90;;
9836;SDS011;4957;51.412;6.724;2022-11-15T09:50:43;5.63;;;3.13;;
9836;SDS011;4957;51.412;6.724;2022-11-15T09:53:14;4.03;;;2.87;;
9836;SDS011;4957;51.412;6.724;2022-11-15T09:56:02;4.43;;;2.87;;
9836;SDS011;4957;51.412;6.724;2022-11-15T10:01:08;5.53;;;2.47;;
9836;SDS011;4957;51.412;6.724;2022-11-15T10:03:42;3.53;;;2.17;;
9836;SDS011;4957;51.412;6.724;2022-11-15T10:06:14;2.33;;;1.90;;
9836;SDS011;4957;51.412;6.724;2022-11-15T10:11:20;2.30;;;1.70;;
9836;SDS011;4957;51.412;6.724;2022-11-15T10:13:48;3.10;;;1.80;;
9836;SDS011;4957;51.412;6.724;2022-11-15T10:16:43;4.10;;;1.93;;
9836;SDS011;4957;51.412;6.724;2022-11-15T10:24:41;2.33;;;1.50;;
9836;SDS011;4957;51.412;6.724;2022-11-15T10:27:14;2.03;;;1.37;;
9836;SDS011;4957;51.412;6.724;2022-11-15T10:29:44;3.53;;;1.27;;
9836;SDS011;4957;51.412;6.724;2022-11-15T10:32:13;1.70;;;1.20;;
9836;SDS011;4957;51.412;6.724;2022-11-15T10:34:41;3.40;;;1.60;;
9836;SDS011;4957;51.412;6.724;2022-11-15T10:37:06;3.97;;;1.60;;
9836;SDS011;4957;51.412;6.724;2022-11-15T10:39:32;2.40;;;1.53;;
9836;SDS011;4957;51.412;6.724;2022-11-15T10:42:14;2.50;;;1.30;;
9836;SDS011;4957;51.412;6.724;2022-11-15T10:44:42;4.77;;;1.20;;
9836;SDS011;4957;51.412;6.724;2022-11-15T10:49:57;4.20;;;1.30;;
9836;SDS011;4957;51.412;6.724;2022-11-15T10:52:24;4.50;;;1.27;;
9836;SDS011;4957;51.412;6.724;2022-11-15T10:57:26;2.57;;;1.33;;
9836;SDS011;4957;51.412;6.724;2022-11-15T10:59:55;1.77;;;1.33;;
9836;SDS011;4957;51.412;6.724;2022-11-15T11:02:28;1.50;;;1.27;;
9836;SDS011;4957;51.412;6.724;2022-11-15T11:04:57;1.73;;;1.10;;
9836;SDS011;4957;51.412;6.724;2022-11-15T11:07:27;3.60;;;1.50;;
9836;SDS011;4957;51.412;6.724;2022-11-15T11:10:01;1.63;;;1.13;;
9836;SDS011;4957;51.412;6.724;2022-11-15T11:12:42;2.60;;;1.17;;
9836;SDS011;4957;51.412;6.724;2022-11-15T11:15:12;2.73;;;1.10;;
9836;SDS011;4957;51.412;6.724;2022-11-15T11:25:49;3.30;;;1.40;;
9836;SDS011;4957;51.412;6.724;2022-11-15T11:39:31;2.50;;;1.13;;
9836;SDS011;4957;51.412;6.724;2022-11-15T11:47:39;2.57;;;1.20;;
9836;SDS011;4957;51.412;6.724;2022-11-15T11:52:39;3.63;;;1.03;;
9836;SDS011;4957;51.412;6.724;2022-11-15T11:55:43;1.30;;;0.87;;
9836;SDS011;4957;51.412;6.724;2022-11-15T12:03:46;1.30;;;1.03;;
9836;SDS011;4957;51.412;6.724;2022-11-15T12:06:32;2.03;;;1.13;;
9836;SDS011;4957;51.412;6.724;2022-11-15T12:09:20;3.57;;;0.80;;
9836;SDS011;4957;51.412;6.724;2022-11-15T12:14:45;2.90;;;1.10;;
9836;SDS011;4957;51.412;6.724;2022-11-15T12:17:17;2.47;;;0.87;;
9836;SDS011;4957;51.412;6.724;2022-11-15T12:19:48;3.63;;;0.97;;
9836;SDS011;4957;51.412;6.724;2022-11-15T12:22:21;3.10;;;0.97;;
9836;SDS011;4957;51.412;6.724;2022-11-15T12:25:18;2.97;;;0.87;;
9836;SDS011;4957;51.412;6.724;2022-11-15T12:28:01;2.33;;;0.70;;
9836;SDS011;4957;51.412;6.724;2022-11-15T12:30:44;4.10;;;1.10;;
9836;SDS011;4957;51.412;6.724;2022-11-15T12:39:04;4.03;;;0.80;;
9836;SDS011;4957;51.412;6.724;2022-11-15T12:41:35;1.03;;;0.70;;
9836;SDS011;4957;51.412;6.724;2022-11-15T12:44:02;3.07;;;0.83;;
9836;SDS011;4957;51.412;6.724;2022-11-15T12:48:55;2.30;;;0.67;;
9836;SDS011;4957;51.412;6.724;2022-11-15T12:52:08;1.23;;;0.80;;
9836;SDS011;4957;51.412;6.724;2022-11-15T12:57:10;1.67;;;0.53;;
9836;SDS011;4957;51.412;6.724;2022-11-15T13:02:30;2.23;;;0.67;;
9836;SDS011;4957;51.412;6.724;2022-11-15T13:17:50;2.57;;;0.50;;
9836;SDS011;4957;51.412;6.724;2022-11-15T13:35:50;2.23;;;0.80;;
9836;SDS011;4957;51.412;6.724;2022-11-15T13:40:55;2.53;;;1.20;;
9836;SDS011;4957;51.412;6.724;2022-11-15T13:48:38;2.33;;;0.87;;
9836;SDS011;4957;51.412;6.724;2022-11-15T13:51:09;2.87;;;0.90;;
9836;SDS011;4957;51.412;6.724;2022-11-15T13:53:44;2.63;;;0.70;;
9836;SDS011;4957;51.412;6.724;2022-11-15T13:56:15;4.97;;;1.10;;
9836;SDS011;4957;51.412;6.724;2022-11-15T13:58:43;2.67;;;0.90;;
9836;SDS011;4957;51.412;6.724;2022-11-15T14:01:13;2.93;;;1.10;;
9836;SDS011;4957;51.412;6.724;2022-11-15T14:03:46;4.90;;;0.80;;
9836;SDS011;4957;51.412;6.724;2022-11-15T14:06:16;3.67;;;0.70;;
9836;SDS011;4957;51.412;6.724;2022-11-15T14:09:02;3.13;;;1.10;;
9836;SDS011;4957;51.412;6.724;2022-11-15T14:11:34;3.23;;;1.23;;
9836;SDS011;4957;51.412;6.724;2022-11-15T14:19:04;1.80;;;0.90;;
9836;SDS011;4957;51.412;6.724;2022-11-15T14:21:31;1.70;;;0.90;;
9836;SDS011;4957;51.412;6.724;2022-11-15T14:24:41;1.37;;;0.77;;
9836;SDS011;4957;51.412;6.724;2022-11-15T14:26:47;3.40;;;1.20;;
9836;SDS011;4957;51.412;6.724;2022-11-15T14:29:23;4.60;;;1.20;;
9836;SDS011;4957;51.412;6.724;2022-11-15T14:31:50;4.73;;;1.10;;
9836;SDS011;4957;51.412;6.724;2022-11-15T14:34:16;4.00;;;1.00;;
9836;SDS011;4957;51.412;6.724;2022-11-15T14:36:42;3.53;;;1.27;;
9836;SDS011;4957;51.412;6.724;2022-11-15T14:39:07;1.40;;;1.00;;
9836;SDS011;4957;51.412;6.724;2022-11-15T14:41:35;3.33;;;1.10;;
9836;SDS011;4957;51.412;6.724;2022-11-15T14:44:04;2.63;;;1.10;;
9836;SDS011;4957;51.412;6.724;2022-11-15T14:46:30;4.33;;;1.43;;
9836;SDS011;4957;51.412;6.724;2022-11-15T14:48:56;3.03;;;1.10;;
9836;SDS011;4957;51.412;6.724;2022-11-15T14:51:22;4.33;;;1.37;;
9836;SDS011;4957;51.412;6.724;2022-11-15T14:53:48;4.90;;;1.67;;
9836;SDS011;4957;51.412;6.724;2022-11-15T14:56:14;4.73;;;1.57;;
9836;SDS011;4957;51.412;6.724;2022-11-15T14:58:41;4.93;;;1.40;;
9836;SDS011;4957;51.412;6.724;2022-11-15T15:01:20;3.73;;;1.80;;
9836;SDS011;4957;51.412;6.724;2022-11-15T15:03:48;3.50;;;1.70;;
9836;SDS011;4957;51.412;6.724;2022-11-15T15:06:16;5.37;;;1.50;;
9836;SDS011;4957;51.412;6.724;2022-11-15T15:08:42;1.87;;;1.47;;
9836;SDS011;4957;51.412;6.724;2022-11-15T15:11:16;3.90;;;1.30;;
9836;SDS011;4957;51.412;6.724;2022-11-15T15:13:45;2.43;;;1.40;;
9836;SDS011;4957;51.412;6.724;2022-11-15T15:16:10;2.03;;;1.63;;
9836;SDS011;4957;51.412;6.724;2022-11-15T15:18:36;4.90;;;1.80;;
9836;SDS011;4957;51.412;6.724;2022-11-15T15:21:02;2.03;;;1.73;;
9836;SDS011;4957;51.412;6.724;2022-11-15T15:23:36;2.33;;;1.70;;
9836;SDS011;4957;51.412;6.724;2022-11-15T15:26:01;2.50;;;1.67;;
9836;SDS011;4957;51.412;6.724;2022-11-15T15:28:27;5.60;;;1.93;;
9836;SDS011;4957;51.412;6.724;2022-11-15T15:30:53;5.40;;;1.80;;
9836;SDS011;4957;51.412;6.724;2022-11-15T15:33:19;2.30;;;1.50;;
9836;SDS011;4957;51.412;6.724;2022-11-15T15:35:45;4.17;;;1.90;;
9836;SDS011;4957;51.412;6.724;2022-11-15T15:38:11;4.03;;;1.70;;
9836;SDS011;4957;51.412;6.724;2022-11-15T15:40:37;1.90;;;1.37;;
9836;SDS011;4957;51.412;6.724;2022-11-15T15:43:03;2.10;;;1.70;;
9836;SDS011;4957;51.412;6.724;2022-11-15T15:45:30;3.03;;;1.83;;
9836;SDS011;4957;51.412;6.724;2022-11-15T15:47:57;5.00;;;1.80;;
9836;SDS011;4957;51.412;6.724;2022-11-15T15:50:24;3.77;;;2.20;;
9836;SDS011;4957;51.412;6.724;2022-11-15T15:53:00;6.43;;;2.47;;
9836;SDS011;4957;51.412;6.724;2022-11-15T15:55:27;3.60;;;1.83;;
9836;SDS011;4957;51.412;6.724;2022-11-15T15:57:54;3.73;;;1.70;;
9836;SDS011;4957;51.412;6.724;2022-11-15T16:00:20;3.63;;;1.83;;
9836;SDS011;4957;51.412;6.724;2022-11-15T16:02:48;2.17;;;1.70;;
9836;SDS011;4957;51.412;6.724;2022-11-15T16:05:14;4.13;;;1.93;;
9836;SDS011;4957;51.412;6.724;2022-11-15T16:07:40;3.00;;;1.80;;
9836;SDS011;4957;51.412;6.724;2022-11-15T16:10:27;3.87;;;1.83;;
9836;SDS011;4957;51.412;6.724;2022-11-15T16:12:55;3.07;;;1.93;;
9836;SDS011;4957;51.412;6.724;2022-11-15T16:15:22;2.90;;;1.70;;
9836;SDS011;4957;51.412;6.724;2022-11-15T16:17:51;3.70;;;1.87;;
9836;SDS011;4957;51.412;6.724;2022-11-15T16:23:15;4.27;;;1.90;;
9836;SDS011;4957;51.412;6.724;2022-11-15T16:28:16;2.77;;;1.77;;
9836;SDS011;4957;51.412;6.724;2022-11-15T16:30:46;3.33;;;1.70;;
9836;SDS011;4957;51.412;6.724;2022-11-15T16:33:12;3.57;;;1.47;;
9836;SDS011;4957;51.412;6.724;2022-11-15T16:35:38;4.90;;;1.70;;
9836;SDS011;4957;51.412;6.724;2022-11-15T16:38:03;1.63;;;1.53;;
9836;SDS011;4957;51.412;6.724;2022-11-15T16:40:33;1.50;;;1.40;;
9836;SDS011;4957;51.412;6.724;2022-11-15T16:43:00;1.83;;;1.60;;
9836;SDS011;4957;51.412;6.724;2022-11-15T16:45:27;3.00;;;1.67;;
9836;SDS011;4957;51.412;6.724;2022-11-15T16:47:53;2.23;;;1.70;;
9836;SDS011;4957;51.412;6.724;2022-11-15T16:52:53;3.23;;;1.70;;
9836;SDS011;4957;51.412;6.724;2022-11-15T16:55:24;2.63;;;1.47;;
9836;SDS011;4957;51.412;6.724;2022-11-15T16:57:52;2.90;;;1.70;;
9836;SDS011;4957;51.412;6.724;2022-11-15T17:00:18;3.17;;;1.50;;
9836;SDS011;4957;51.412;6.724;2022-11-15T17:02:46;3.47;;;1.83;;
9836;SDS011;4957;51.412;6.724;2022-11-15T17:05:13;1.73;;;1.40;;
9836;SDS011;4957;51.412;6.724;2022-11-15T17:07:40;4.70;;;1.80;;
9836;SDS011;4957;51.412;6.724;2022-11-15T17:10:06;4.23;;;2.10;;
9836;SDS011;4957;51.412;6.724;2022-11-15T17:12:35;5.00;;;1.60;;
9836;SDS011;4957;51.412;6.724;2022-11-15T17:15:01;5.13;;;1.67;;
9836;SDS011;4957;51.412;6.724;2022-11-15T17:17:28;1.40;;;1.30;;
9836;SDS011;4957;51.412;6.724;2022-11-15T17:19:55;2.23;;;1.50;;
9836;SDS011;4957;51.412;6.724;2022-11-15T17:22:21;4.00;;;1.70;;
9836;SDS011;4957;51.412;6.724;2022-11-15T17:24:47;1.50;;;1.37;;
9836;SDS011;4957;51.412;6.724;2022-11-15T17:27:12;3.27;;;1.50;;
9836;SDS011;4957;51.412;6.724;2022-11-15T17:29:39;3.10;;;1.27;;
9836;SDS011;4957;51.412;6.724;2022-11-15T17:32:05;2.47;;;1.43;;
9836;SDS011;4957;51.412;6.724;2022-11-15T17:34:31;4.57;;;1.57;;
9836;SDS011;4957;51.412;6.724;2022-11-15T17:36:57;2.03;;;1.60;;
9836;SDS011;4957;51.412;6.724;2022-11-15T17:39:23;2.30;;;1.53;;
9836;SDS011;4957;51.412;6.724;2022-11-15T17:41:49;1.60;;;1.40;;
9836;SDS011;4957;51.412;6.724;2022-11-15T17:44:15;1.97;;;1.57;;
9836;SDS011;4957;51.412;6.724;2022-11-15T17:46:42;1.50;;;1.40;;
9836;SDS011;4957;51.412;6.724;2022-11-15T17:49:07;4.30;;;1.63;;
9836;SDS011;4957;51.412;6.724;2022-11-15T17:51:33;2.60;;;1.57;;
9836;SDS011;4957;51.412;6.724;2022-11-15T17:53:59;2.57;;;1.70;;
9836;SDS011;4957;51.412;6.724;2022-11-15T17:56:26;1.60;;;1.40;;
9836;SDS011;4957;51.412;6.724;2022-11-15T17:58:54;1.47;;;1.30;;